createdAt,value
2018-12-17T00:01:21.516Z,84.73
2018-12-17T00:03:49.971Z,84.43
2018-12-17T00:06:18.576Z,84.91
2018-12-17T00:08:47.051Z,84.68
2018-12-17T00:11:16.275Z,84.39
2018-12-17T00:13:44.842Z,84.96
2018-12-17T00:16:13.363Z,84.98
2018-12-17T00:18:41.823Z,84.85
2018-12-17T00:21:10.323Z,84.44
2018-12-17T00:23:38.792Z,83.90
2018-12-17T00:26:09.532Z,83.85
2018-12-17T00:28:38.010Z,84.03
2018-12-17T00:31:06.495Z,84.01
2018-12-17T00:33:34.939Z,84.28
2018-12-17T00:36:03.542Z,84.57
2018-12-17T00:38:31.992Z,84.71
2018-12-17T00:41:00.482Z,85.12
2018-12-17T00:43:29.183Z,85.49
2018-12-17T00:45:57.833Z,85.79
2018-12-17T00:48:26.442Z,85.67
2018-12-17T00:50:55.057Z,85.99
2018-12-17T00:53:23.535Z,85.70
2018-12-17T00:55:52.037Z,85.64
2018-12-17T00:58:20.480Z,86.08
2018-12-17T01:00:48.972Z,85.87
2018-12-17T01:03:17.458Z,86.07
2018-12-17T01:05:45.995Z,85.59
2018-12-17T01:08:14.475Z,85.84
2018-12-17T01:10:42.963Z,85.66
2018-12-17T01:13:11.418Z,86.03
2018-12-17T01:15:39.916Z,85.79
2018-12-17T01:18:08.412Z,84.91
2018-12-17T01:20:36.952Z,85.31
2018-12-17T01:23:05.473Z,85.99
2018-12-17T01:25:34.212Z,86.29
2018-12-17T01:28:02.680Z,86.44
2018-12-17T01:30:31.159Z,86.54
2018-12-17T01:32:59.624Z,86.79
2018-12-17T01:35:28.171Z,87.30
2018-12-17T01:37:56.610Z,87.28
2018-12-17T01:40:25.117Z,87.14
2018-12-17T01:42:53.587Z,87.60
2018-12-17T01:45:22.093Z,87.64
2018-12-17T01:47:50.556Z,87.21
2018-12-17T01:50:19.036Z,87.69
2018-12-17T01:52:47.479Z,87.76
2018-12-17T01:55:15.935Z,87.59
2018-12-17T01:57:44.419Z,87.34
2018-12-17T02:00:12.915Z,87.12
2018-12-17T02:02:41.438Z,87.02
2018-12-17T02:05:09.912Z,87.56
2018-12-17T02:07:38.413Z,87.31
2018-12-17T02:10:07.039Z,87.03
2018-12-17T02:12:35.534Z,86.91
2018-12-17T02:15:04.484Z,86.70
2018-12-17T02:17:32.993Z,87.41
2018-12-17T02:20:01.490Z,86.92
2018-12-17T02:22:29.967Z,86.95
2018-12-17T02:24:58.420Z,86.91
2018-12-17T02:27:26.916Z,86.89
2018-12-17T02:29:55.410Z,86.51
2018-12-17T02:32:23.888Z,86.56
2018-12-17T02:34:52.339Z,86.63
2018-12-17T02:37:20.835Z,86.35
2018-12-17T02:39:49.318Z,86.11
2018-12-17T02:42:17.891Z,85.78
2018-12-17T02:44:46.350Z,85.69
2018-12-17T02:47:14.858Z,85.96
2018-12-17T02:49:43.339Z,85.47
2018-12-17T02:52:11.850Z,86.02
2018-12-17T02:54:40.810Z,85.54
2018-12-17T02:57:09.291Z,85.94
2018-12-17T02:59:37.749Z,86.04
2018-12-17T03:02:06.252Z,85.87
2018-12-17T03:04:34.692Z,85.51
2018-12-17T03:07:03.208Z,85.22
2018-12-17T03:09:31.658Z,85.34
2018-12-17T03:12:00.159Z,85.84
2018-12-17T03:14:28.665Z,85.76
2018-12-17T03:16:57.150Z,84.80
2018-12-17T03:19:25.638Z,85.40
2018-12-17T03:21:54.166Z,84.48
2018-12-17T03:24:22.653Z,84.03
2018-12-17T03:26:51.302Z,84.64
2018-12-17T03:29:19.802Z,84.74
2018-12-17T03:33:12.677Z,85.48
2018-12-17T03:35:41.168Z,85.39
2018-12-17T03:38:09.654Z,84.97
2018-12-17T03:40:38.088Z,85.16
2018-12-17T03:43:06.614Z,84.92
2018-12-17T03:45:35.080Z,85.36
2018-12-17T03:48:03.765Z,84.49
2018-12-17T03:50:32.244Z,84.97
2018-12-17T03:53:00.733Z,85.71
2018-12-17T03:55:29.173Z,85.97
2018-12-17T03:57:57.664Z,85.72
2018-12-17T04:00:26.128Z,86.23
2018-12-17T04:02:54.656Z,86.11
2018-12-17T04:05:23.183Z,86.34
2018-12-17T04:07:51.663Z,86.16
2018-12-17T04:10:20.138Z,86.15
2018-12-17T04:12:48.979Z,85.43
2018-12-17T04:15:17.514Z,85.54
2018-12-17T04:17:45.965Z,84.94
2018-12-17T04:20:14.399Z,84.46
2018-12-17T04:22:42.902Z,84.59
2018-12-17T04:25:11.394Z,85.23
2018-12-17T04:27:39.885Z,85.82
2018-12-17T04:30:08.605Z,85.82
2018-12-17T04:32:37.123Z,86.49
2018-12-17T04:35:06.077Z,86.54
2018-12-17T04:37:34.590Z,86.37
2018-12-17T04:40:03.181Z,86.99
2018-12-17T04:42:31.668Z,86.56
2018-12-17T04:45:00.112Z,86.21
2018-12-17T04:47:28.630Z,85.91
2018-12-17T04:49:57.088Z,86.48
2018-12-17T04:52:25.582Z,86.16
2018-12-17T04:54:54.139Z,86.33
2018-12-17T04:57:22.621Z,86.79
2018-12-17T04:59:51.108Z,87.17
2018-12-17T05:02:19.667Z,86.96
2018-12-17T05:04:48.223Z,86.63
2018-12-17T05:07:16.704Z,86.81
2018-12-17T05:09:45.164Z,86.65
2018-12-17T05:12:13.643Z,86.48
2018-12-17T05:14:42.116Z,86.71
2018-12-17T05:17:10.620Z,86.70
2018-12-17T05:19:39.064Z,86.55
2018-12-17T05:22:07.563Z,86.65
2018-12-17T05:24:36.017Z,86.39
2018-12-17T05:27:04.521Z,86.05
2018-12-17T05:29:32.999Z,85.79
2018-12-17T05:32:01.501Z,86.03
2018-12-17T05:34:29.997Z,86.65
2018-12-17T05:36:58.479Z,86.75
2018-12-17T05:39:26.968Z,86.66
2018-12-17T05:41:55.467Z,87.30
2018-12-17T05:44:23.937Z,87.25
2018-12-17T05:46:52.445Z,87.28
2018-12-17T05:49:20.897Z,86.98
2018-12-17T05:51:49.434Z,86.64
2018-12-17T05:54:17.876Z,86.38
2018-12-17T05:56:46.353Z,86.80
2018-12-17T05:59:14.908Z,86.53
2018-12-17T06:01:43.444Z,86.91
2018-12-17T06:04:11.957Z,86.57
2018-12-17T06:06:40.446Z,86.41
2018-12-17T06:09:12.246Z,86.35
2018-12-17T06:11:40.984Z,86.70
2018-12-17T06:14:09.478Z,87.07
2018-12-17T06:16:37.945Z,86.71
2018-12-17T06:19:06.468Z,86.68
2018-12-17T06:21:34.938Z,87.34
2018-12-17T06:24:03.580Z,87.22
2018-12-17T06:26:32.018Z,87.93
2018-12-17T06:29:00.716Z,88.04
2018-12-17T06:31:29.873Z,87.26
2018-12-17T06:33:58.450Z,87.37
2018-12-17T06:36:26.963Z,87.47
2018-12-17T06:38:56.282Z,87.28
2018-12-17T06:41:24.924Z,87.55
2018-12-17T06:43:53.408Z,86.76
2018-12-17T06:46:21.858Z,86.80
2018-12-17T06:48:50.342Z,86.43
2018-12-17T06:51:21.135Z,87.09
2018-12-17T06:53:49.654Z,87.04
2018-12-17T06:56:18.100Z,87.32
2018-12-17T06:58:46.552Z,87.46
2018-12-17T07:01:15.007Z,87.40
2018-12-17T07:03:43.478Z,87.37
2018-12-17T07:06:11.912Z,87.56
2018-12-17T07:08:40.349Z,87.25
2018-12-17T07:11:08.779Z,86.91
2018-12-17T07:13:37.275Z,87.54
2018-12-17T07:16:05.844Z,87.10
2018-12-17T07:18:34.324Z,87.65
2018-12-17T07:21:02.764Z,87.50
2018-12-17T07:23:31.252Z,87.34
2018-12-17T07:25:59.708Z,87.98
2018-12-17T07:28:28.176Z,87.79
2018-12-17T07:30:56.621Z,87.82
2018-12-17T07:33:25.136Z,87.85
2018-12-17T07:35:53.593Z,87.82
2018-12-17T07:38:22.076Z,88.19
2018-12-17T07:40:50.510Z,87.79
2018-12-17T07:43:19.010Z,87.27
2018-12-17T07:45:47.450Z,87.30
2018-12-17T07:48:15.923Z,86.87
2018-12-17T07:50:44.674Z,86.60
2018-12-17T07:53:13.166Z,86.55
2018-12-17T07:55:41.635Z,86.41
2018-12-17T07:58:10.137Z,86.74
2018-12-17T08:00:38.667Z,86.41
2018-12-17T08:03:07.158Z,85.59
2018-12-17T08:05:35.601Z,85.82
2018-12-17T08:08:04.127Z,85.60
2018-12-17T08:10:32.601Z,85.12
2018-12-17T08:13:01.237Z,84.94
2018-12-17T08:15:29.744Z,84.44
2018-12-17T08:18:09.485Z,84.11
2018-12-17T08:20:38.000Z,84.28
2018-12-17T08:23:06.568Z,83.91
2018-12-17T08:25:35.051Z,84.15
2018-12-17T08:28:03.557Z,84.23
2018-12-17T08:30:32.008Z,85.49
2018-12-17T08:33:00.489Z,84.84
2018-12-17T08:35:29.000Z,83.95
2018-12-17T08:37:57.553Z,84.12
2018-12-17T08:40:26.001Z,83.67
2018-12-17T08:42:54.491Z,83.13
2018-12-17T08:45:22.948Z,82.15
2018-12-17T08:47:51.516Z,82.24
2018-12-17T08:50:20.121Z,82.13
2018-12-17T08:52:48.636Z,81.77
2018-12-17T08:55:17.095Z,81.22
2018-12-17T08:57:45.551Z,80.93
2018-12-17T09:00:14.278Z,80.99
2018-12-17T09:02:42.753Z,81.17
2018-12-17T09:05:11.379Z,82.02
2018-12-17T09:07:39.854Z,81.75
2018-12-17T09:10:08.927Z,81.60
2018-12-17T09:12:37.365Z,81.35
2018-12-17T09:15:06.225Z,81.79
2018-12-17T09:17:34.701Z,81.81
2018-12-17T09:20:03.363Z,81.42
2018-12-17T09:22:31.844Z,82.31
2018-12-17T09:25:00.427Z,82.90
2018-12-17T09:27:29.023Z,83.34
2018-12-17T09:29:57.492Z,83.03
2018-12-17T09:32:26.099Z,83.54
2018-12-17T09:34:54.610Z,83.88
2018-12-17T09:37:23.068Z,83.29
2018-12-17T09:39:51.582Z,83.30
2018-12-17T09:42:20.035Z,83.12
2018-12-17T09:44:48.530Z,83.70
2018-12-17T09:47:17.023Z,84.38
2018-12-17T09:49:45.502Z,83.68
2018-12-17T09:52:13.965Z,83.88
2018-12-17T09:54:42.430Z,84.14
2018-12-17T09:57:11.007Z,83.73
2018-12-17T09:59:39.544Z,84.15
2018-12-17T10:02:07.995Z,84.14
2018-12-17T10:04:36.458Z,84.44
2018-12-17T10:07:04.923Z,84.10
2018-12-17T10:09:33.392Z,84.00
2018-12-17T10:12:01.874Z,83.80
2018-12-17T10:14:30.427Z,83.44
2018-12-17T10:16:58.913Z,83.48
2018-12-17T10:19:27.456Z,83.36
2018-12-17T10:21:55.895Z,82.95
2018-12-17T10:24:24.367Z,82.80
2018-12-17T10:26:52.816Z,83.30
2018-12-17T10:29:21.312Z,83.05
2018-12-17T10:31:49.759Z,82.76
2018-12-17T10:34:18.271Z,82.05
2018-12-17T10:36:46.811Z,81.85
2018-12-17T10:39:15.306Z,81.63
2018-12-17T10:41:43.760Z,81.88
2018-12-17T10:44:12.226Z,81.67
2018-12-17T10:46:40.713Z,81.18
2018-12-17T10:49:09.147Z,80.83
2018-12-17T10:51:37.698Z,81.23
2018-12-17T10:54:06.206Z,80.46
2018-12-17T10:56:34.832Z,81.35
2018-12-17T10:59:03.336Z,81.54
2018-12-17T11:01:37.397Z,82.21
2018-12-17T11:04:13.636Z,82.31
2018-12-17T11:06:42.151Z,81.86
2018-12-17T11:09:10.927Z,81.13
2018-12-17T11:11:39.429Z,80.34
2018-12-17T11:14:07.926Z,80.39
2018-12-17T11:16:36.477Z,80.31
2018-12-17T11:19:04.932Z,80.20
2018-12-17T11:21:33.531Z,80.28
2018-12-17T11:24:01.990Z,80.42
2018-12-17T11:26:30.470Z,80.07
2018-12-17T11:28:58.944Z,79.69
2018-12-17T11:31:28.314Z,79.37
2018-12-17T11:33:56.792Z,78.79
2018-12-17T11:36:25.336Z,78.45
2018-12-17T11:38:53.785Z,79.10
2018-12-17T11:41:22.284Z,79.47
2018-12-17T11:43:50.719Z,79.25
2018-12-17T11:46:19.225Z,79.47
2018-12-17T11:48:48.044Z,79.81
2018-12-17T11:51:16.529Z,80.22
2018-12-17T11:53:44.988Z,80.02
2018-12-17T11:56:13.518Z,80.66
2018-12-17T11:58:41.986Z,81.37
2018-12-17T12:01:11.411Z,82.02
2018-12-17T12:03:42.298Z,82.14
2018-12-17T12:06:14.145Z,82.02
2018-12-17T12:08:41.271Z,81.92
2018-12-17T12:11:09.736Z,81.37
2018-12-17T12:13:38.246Z,81.00
2018-12-17T12:16:06.706Z,80.32
2018-12-17T12:18:35.172Z,79.84
2018-12-17T12:21:03.641Z,79.04
2018-12-17T12:23:32.124Z,78.38
2018-12-17T12:26:00.602Z,79.07
2018-12-17T12:28:29.099Z,79.34
2018-12-17T12:31:00.513Z,79.69
2018-12-17T12:33:28.069Z,80.21
2018-12-17T12:35:56.511Z,81.08
2018-12-17T12:38:25.420Z,82.00
2018-12-17T12:40:53.911Z,81.92
2018-12-17T12:43:22.408Z,82.54
2018-12-17T12:45:50.860Z,82.69
2018-12-17T12:48:19.339Z,83.33
2018-12-17T12:50:47.775Z,83.42
2018-12-17T12:53:16.372Z,83.89
2018-12-17T12:55:44.894Z,83.88
2018-12-17T12:59:37.866Z,83.53
2018-12-17T13:02:06.410Z,84.35
2018-12-17T13:04:34.915Z,83.58
2018-12-17T13:07:03.377Z,83.97
2018-12-17T13:09:31.906Z,83.33
2018-12-17T13:12:00.380Z,83.99
2018-12-17T13:14:28.910Z,84.18
2018-12-17T13:16:57.376Z,84.20
2018-12-17T13:19:25.851Z,84.44
2018-12-17T13:21:54.299Z,84.01
2018-12-17T13:24:22.773Z,84.53
2018-12-17T13:26:51.244Z,84.85
2018-12-17T13:29:19.727Z,85.57
2018-12-17T13:31:48.227Z,85.06
2018-12-17T13:34:16.708Z,84.97
2018-12-17T13:36:45.127Z,84.58
2018-12-17T13:39:13.620Z,83.80
2018-12-17T13:41:42.317Z,83.70
2018-12-17T13:44:10.891Z,83.42
2018-12-17T13:46:39.340Z,83.96
2018-12-17T13:49:07.950Z,84.72
2018-12-17T13:51:38.412Z,84.92
2018-12-17T13:54:07.092Z,85.41
2018-12-17T13:56:35.523Z,86.12
2018-12-17T13:59:04.207Z,86.66
2018-12-17T14:01:33.705Z,86.23
2018-12-17T14:04:02.301Z,86.16
2018-12-17T14:06:30.880Z,86.53
2018-12-17T14:08:59.335Z,86.35
2018-12-17T14:11:27.849Z,86.06
2018-12-17T14:13:56.335Z,86.55
2018-12-17T14:16:30.064Z,86.63
2018-12-17T14:19:03.704Z,86.03
2018-12-17T14:22:07.027Z,86.00
2018-12-17T14:24:35.628Z,86.78
2018-12-17T14:27:04.220Z,86.40
2018-12-17T14:29:32.723Z,86.64
2018-12-17T14:32:01.201Z,86.65
2018-12-17T14:34:29.703Z,86.67
2018-12-17T14:36:58.175Z,85.97
2018-12-17T14:39:26.627Z,85.80
2018-12-17T14:41:55.121Z,86.37
2018-12-17T14:44:28.794Z,85.94
2018-12-17T14:46:59.699Z,86.55
2018-12-17T14:49:28.332Z,86.17
2018-12-17T14:51:56.832Z,85.89
2018-12-17T14:54:25.399Z,86.41
2018-12-17T14:56:53.897Z,86.42
2018-12-17T14:59:22.365Z,85.90
2018-12-17T15:01:50.870Z,85.99
2018-12-17T15:04:20.348Z,86.25
2018-12-17T15:06:48.842Z,86.27
2018-12-17T15:09:17.303Z,86.54
2018-12-17T15:11:45.772Z,85.94
2018-12-17T15:14:14.275Z,86.48
2018-12-17T15:16:42.755Z,86.94
2018-12-17T15:19:11.209Z,86.72
2018-12-17T15:24:32.890Z,86.90
2018-12-17T15:27:01.348Z,87.51
2018-12-17T15:29:29.762Z,87.48
2018-12-17T15:31:58.209Z,87.21
2018-12-17T15:34:26.762Z,87.28
2018-12-17T15:36:55.301Z,87.29
2018-12-17T15:39:23.960Z,86.87
2018-12-17T15:41:52.642Z,86.66
2018-12-17T15:44:21.091Z,86.58
2018-12-17T15:46:49.547Z,87.07
2018-12-17T15:49:17.951Z,87.04
2018-12-17T15:51:46.873Z,86.62
2018-12-17T15:57:07.760Z,87.01
2018-12-17T15:59:36.821Z,86.94
2018-12-17T16:02:05.450Z,87.02
2018-12-17T16:04:33.941Z,87.59
2018-12-17T16:07:02.401Z,87.48
2018-12-17T16:09:30.837Z,87.56
2018-12-17T16:11:59.286Z,87.61
2018-12-17T16:14:27.773Z,87.82
2018-12-17T16:16:56.248Z,88.29
2018-12-17T16:19:24.679Z,88.96
2018-12-17T16:21:53.240Z,89.25
2018-12-17T16:24:21.678Z,89.67
2018-12-17T16:26:50.238Z,89.41
2018-12-17T16:29:18.706Z,89.41
2018-12-17T16:31:47.329Z,89.74
2018-12-17T16:34:15.760Z,89.28
2018-12-17T16:36:44.500Z,89.94
2018-12-17T16:39:13.042Z,89.57
2018-12-17T16:41:41.499Z,89.83
2018-12-17T16:44:09.932Z,89.30
2018-12-17T16:46:40.568Z,88.96
2018-12-17T16:49:09.215Z,88.88
2018-12-17T16:51:37.732Z,88.71
2018-12-17T16:54:06.172Z,89.18
2018-12-17T16:56:34.602Z,88.77
2018-12-17T16:59:03.083Z,88.89
2018-12-17T17:01:31.630Z,89.09
2018-12-17T17:04:00.107Z,89.10
2018-12-17T17:06:28.648Z,88.80
2018-12-17T17:08:58.852Z,89.39
2018-12-17T17:11:27.767Z,89.71
2018-12-17T17:13:56.278Z,89.44
2018-12-17T17:16:24.765Z,89.94
2018-12-17T17:18:53.234Z,89.93
2018-12-17T17:21:21.869Z,90.52
2018-12-17T17:23:50.374Z,90.31
2018-12-17T17:26:18.835Z,89.61
2018-12-17T17:28:47.429Z,89.61
2018-12-17T17:31:15.987Z,88.78
2018-12-17T17:33:44.480Z,89.31
2018-12-17T17:36:12.938Z,89.31
2018-12-17T17:38:41.419Z,89.15
2018-12-17T17:41:09.911Z,89.29
2018-12-17T17:43:38.484Z,88.72
2018-12-17T17:46:06.921Z,88.53
2018-12-17T17:48:35.572Z,88.43
2018-12-17T17:51:04.168Z,89.11
2018-12-17T17:53:32.661Z,89.02
2018-12-17T17:56:01.108Z,88.96
2018-12-17T17:58:29.824Z,89.07
2018-12-17T18:00:58.387Z,89.29
2018-12-17T18:03:26.863Z,89.43
2018-12-17T18:05:55.349Z,89.23
2018-12-17T18:08:23.895Z,89.38
2018-12-17T18:10:52.343Z,89.57
2018-12-17T18:13:20.847Z,89.46
2018-12-17T18:15:49.310Z,89.17
2018-12-17T18:18:17.792Z,89.40
2018-12-17T18:20:46.239Z,90.45
2018-12-17T18:23:14.799Z,90.31
2018-12-17T18:25:43.260Z,90.44
2018-12-17T18:28:12.787Z,90.76
2018-12-17T18:30:41.293Z,91.47
2018-12-17T18:33:09.821Z,91.68
2018-12-17T18:35:38.275Z,91.31
2018-12-17T18:38:06.776Z,91.63
2018-12-17T18:40:35.342Z,92.08
2018-12-17T18:43:04.024Z,91.52
2018-12-17T18:45:33.098Z,92.16
2018-12-17T18:48:01.577Z,92.23
2018-12-17T18:50:30.298Z,92.08
2018-12-17T18:52:59.273Z,92.01
2018-12-17T18:55:27.773Z,92.36
2018-12-17T18:57:56.256Z,91.80
2018-12-17T19:00:24.975Z,92.47
2018-12-17T19:02:53.558Z,92.62
2018-12-17T19:05:22.091Z,92.05
2018-12-17T19:07:50.545Z,92.52
2018-12-17T19:10:19.097Z,91.89
2018-12-17T19:12:47.638Z,91.97
2018-12-17T19:15:16.108Z,91.74
2018-12-17T19:17:44.732Z,92.22
2018-12-17T19:20:13.313Z,91.95
2018-12-17T19:22:41.865Z,92.03
2018-12-17T19:25:10.399Z,92.00
2018-12-17T19:27:38.851Z,91.61
2018-12-17T19:30:08.309Z,91.60
2018-12-17T19:32:40.231Z,91.60
2018-12-17T19:35:07.370Z,91.63
2018-12-17T19:37:35.819Z,92.43
2018-12-17T19:40:05.026Z,92.48
2018-12-17T19:42:33.465Z,92.49
2018-12-17T19:45:01.956Z,92.19
2018-12-17T19:47:30.399Z,92.60
2018-12-17T19:49:58.892Z,91.89
2018-12-17T19:52:27.337Z,91.72
2018-12-17T19:54:55.957Z,91.89
2018-12-17T19:57:24.435Z,92.29
2018-12-17T19:59:52.924Z,92.54
2018-12-17T20:02:21.383Z,92.74
2018-12-17T20:04:49.877Z,92.18
2018-12-17T20:07:18.365Z,92.79
2018-12-17T20:09:46.863Z,92.94
2018-12-17T20:12:15.336Z,92.83
2018-12-17T20:14:43.841Z,92.70
2018-12-17T20:17:12.402Z,92.54
2018-12-17T20:19:40.897Z,93.16
2018-12-17T20:22:09.364Z,93.01
2018-12-17T20:24:37.869Z,92.75
2018-12-17T20:27:06.328Z,93.03
2018-12-17T20:29:34.833Z,93.03
2018-12-17T20:32:03.492Z,93.22
2018-12-17T20:34:31.973Z,93.20
2018-12-17T20:37:00.428Z,92.59
2018-12-17T20:39:28.956Z,92.70
2018-12-17T20:41:57.551Z,92.16
2018-12-17T20:44:26.053Z,92.21
2018-12-17T20:46:54.602Z,92.77
2018-12-17T20:49:23.093Z,92.76
2018-12-17T20:51:51.531Z,93.54
2018-12-17T20:54:20.068Z,93.25
2018-12-17T20:56:48.517Z,93.80
2018-12-17T20:59:17.079Z,93.76
2018-12-17T21:01:45.559Z,93.25
2018-12-17T21:04:14.052Z,93.99
2018-12-17T21:06:42.491Z,94.06
2018-12-17T21:09:10.952Z,94.33
2018-12-17T21:11:39.399Z,94.39
2018-12-17T21:14:07.892Z,94.32
2018-12-17T21:16:36.315Z,94.00
2018-12-17T21:19:04.829Z,94.16
2018-12-17T21:21:33.276Z,94.25
2018-12-17T21:24:01.776Z,94.31
2018-12-17T21:26:30.311Z,94.17
2018-12-17T21:28:58.791Z,94.57
2018-12-17T21:31:27.308Z,94.79
2018-12-17T21:33:55.823Z,94.63
2018-12-17T21:36:24.271Z,94.11
2018-12-17T21:38:52.789Z,94.54
2018-12-17T21:41:21.227Z,93.91
2018-12-17T21:43:49.679Z,94.37
2018-12-17T21:46:18.151Z,93.94
2018-12-17T21:48:46.658Z,93.96
2018-12-17T21:51:15.092Z,94.64
2018-12-17T21:53:43.547Z,94.66
2018-12-17T21:56:12.033Z,94.62
2018-12-17T21:58:40.507Z,94.98
2018-12-17T22:01:08.979Z,94.66
2018-12-17T22:03:37.475Z,94.14
2018-12-17T22:06:05.941Z,94.01
2018-12-17T22:08:34.390Z,94.29
2018-12-17T22:11:02.874Z,93.70
2018-12-17T22:13:31.355Z,94.32
2018-12-17T22:15:59.834Z,93.81
2018-12-17T22:18:28.360Z,93.90
2018-12-17T22:20:56.835Z,93.78
2018-12-17T22:23:25.317Z,94.05
2018-12-17T22:25:53.851Z,93.67
2018-12-17T22:28:22.306Z,94.22
2018-12-17T22:30:50.819Z,93.81
2018-12-17T22:33:19.979Z,94.11
2018-12-17T22:35:48.692Z,94.02
2018-12-17T22:38:17.143Z,93.35
2018-12-17T22:40:45.918Z,93.57
2018-12-17T22:43:14.441Z,93.37
2018-12-17T22:45:42.933Z,92.99
2018-12-17T22:48:11.368Z,93.08
2018-12-17T22:50:39.829Z,93.03
2018-12-17T22:53:08.275Z,93.31
2018-12-17T22:55:36.738Z,93.06
2018-12-17T22:58:05.196Z,93.31
2018-12-17T23:00:33.787Z,93.62
2018-12-17T23:03:02.238Z,93.71
2018-12-17T23:05:30.753Z,93.59
2018-12-17T23:07:59.198Z,93.01
2018-12-17T23:10:44.670Z,93.41
2018-12-17T23:13:24.371Z,93.32
2018-12-17T23:16:04.130Z,92.87
2018-12-17T23:18:31.515Z,92.88
2018-12-17T23:21:00.228Z,93.56
2018-12-17T23:23:29.054Z,93.18
2018-12-17T23:25:57.645Z,92.43
2018-12-17T23:28:26.212Z,92.33
2018-12-17T23:30:54.675Z,92.26
2018-12-17T23:33:23.244Z,92.26
2018-12-17T23:35:51.744Z,92.72
2018-12-17T23:38:20.205Z,92.13
2018-12-17T23:40:48.699Z,92.40
2018-12-17T23:43:17.266Z,92.22
2018-12-17T23:45:45.754Z,92.66
2018-12-17T23:48:14.213Z,92.97
2018-12-17T23:50:43.961Z,93.42
2018-12-17T23:53:12.420Z,92.97
2018-12-17T23:55:40.903Z,93.32
2018-12-17T23:58:09.334Z,92.95
